Friday, January 19, 2018, 10:34 PM EST
Back to Local

KBTV, Burlington International

Location: South Burlington, VT, United States Lat: 44.467
Local Time: 10:34 PM EST ( 3:34 GMT) Lon: -73.15
Time Zone: US/Eastern Elev: 334 ft

Show me the last for .
Show Decoded

2018-01-19 21:54 METAR KBTV 200254Z 18007KT 10SM CLR M02/M07 A2979 RMK AO2 SLP091 T10221072 56022
                 =
2018-01-19 20:54 METAR KBTV 200154Z 18010KT 10SM FEW120 M03/M07 A2980 RMK AO2 SLP097 T10281072 =
2018-01-19 19:54 METAR KBTV 200054Z 18011KT 10SM OVC036 M02/M07 A2983 RMK AO2 SLP106 T10221072 =
2018-01-19 18:54 METAR KBTV 192354Z 18010KT 10SM OVC035 M02/M07 A2985 RMK AO2 SLP114 4/004 60000
                 T10221072 11022 21028 50000 =
2018-01-19 17:54 METAR KBTV 192254Z 19008KT 10SM OVC036 M02/M08 A2985 RMK AO2 SLP114 T10221078 =
2018-01-19 16:54 METAR KBTV 192154Z 20009KT 10SM OVC034 M02/M08 A2986 RMK AO2 SLP114 T10221078 =
2018-01-19 15:54 METAR KBTV 192054Z 18013KT 10SM OVC034 M02/M08 A2985 RMK AO2 SNE26 SLP114 P0000
                 60000 T10221078 58010 =
2018-01-19 14:54 METAR KBTV 191954Z 20009KT 9SM -SN OVC034 M02/M08 A2988 RMK AO2 SNB05 SLP123
                 P0000 T10221078 =
2018-01-19 13:54 METAR KBTV 191854Z 22008KT 10SM OVC032 M03/M08 A2989 RMK AO2 SLP125 T10281078 =
2018-01-19 12:54 METAR KBTV 191754Z 20010KT 10SM OVC037 M02/M08 A2988 RMK AO2 SLP124 4/004
                 T10221078 11022 21044 58014 =
2018-01-19 11:54 METAR KBTV 191654Z 20012KT 9SM OVC036 M03/M08 A2990 RMK AO2 SLP130 T10281078 =
2018-01-19 10:54 METAR KBTV 191554Z 18009KT 8SM OVC031 M03/M08 A2992 RMK AO2 SLP137 T10331078 =
2018-01-19 09:54 METAR KBTV 191454Z 19008KT 7SM OVC026 M04/M07 A2992 RMK AO2 SLP139 T10391072
                 50000 =
2018-01-19 08:54 METAR KBTV 191354Z 20008KT 8SM OVC029 M04/M08 A2993 RMK AO2 SLP140 T10391078 =
2018-01-19 08:50 METAR KBTV 191350Z 20007KT 8SM OVC029 M04/M08 A2993 RMK AO2 =
2018-01-19 07:54 METAR KBTV 191254Z 19008KT 8SM OVC031 M04/M07 A2993 RMK AO2 SLP139 T10441072 =
2018-01-19 06:54 METAR KBTV 191154Z 19008KT 10SM OVC034 M04/M07 A2992 RMK AO2 SLP137 4/004 60000
                 T10441072 11039 21044 50005 =
2018-01-19 05:54 METAR KBTV 191054Z 19007KT 10SM SCT017 OVC041 M04/M07 A2992 RMK AO2 SLP139
                 T10441072 =
2018-01-19 04:54 METAR KBTV 190954Z AUTO 19008KT 9SM FEW031 BKN049 OVC100 M04/M07 A2991 RMK AO2
                 SNE35 SLP134 P0000 T10441072 =
2018-01-19 04:46 METAR KBTV 190946Z AUTO 19008KT 8SM SCT026 BKN049 OVC100 M04/M07 A2991 RMK AO2
                 SNE35 P0000 T10441072 =
2018-01-19 04:12 METAR KBTV 190912Z AUTO 20007KT 3SM -SN OVC026 M04/M07 A2991 RMK AO2 P0000
                 T10441072 =
2018-01-19 04:01 METAR KBTV 190901Z AUTO 18006KT 2 1/2SM -SN BKN024 OVC036 M04/M08 A2990 RMK AO2
                 P0000 T10391078 =
2018-01-19 03:54 METAR KBTV 190854Z AUTO 19006KT 3SM -SN BKN024 OVC036 M04/M08 A2990 RMK AO2
                 SNB44 SLP132 P0000 60000 T10391078 58008 =
2018-01-19 03:39 METAR KBTV 190839Z AUTO 18007KT 9SM SCT026 OVC034 M04/M08 A2990 =
2018-01-19 02:54 METAR KBTV 190754Z AUTO 22003KT 10SM OVC028 M04/M08 A2991 RMK AO2 SLP135
                 T10391083 =
2018-01-19 01:54 METAR KBTV 190654Z AUTO 19006KT 10SM OVC027 M04/M08 A2992 RMK AO2 SLP137
                 T10441083 =
2018-01-19 00:54 METAR KBTV 190554Z AUTO 20007KT 10SM OVC028 M04/M08 A2993 RMK AO2 SLP140 60000
                 T10441083 11039 21044 58000 =
2018-01-18 23:54 METAR KBTV 190454Z 20005KT 10SM BKN029 OVC037 M04/M09 A2993 RMK AO2 SLP142 LAST
                 T10441089 410391106 =
2018-01-18 22:54 METAR KBTV 190354Z 19008KT 10SM OVC037 M04/M09 A2993 RMK AO2 SLP142 T10441089 =

Support USWX by starting your Amazon purchase here.